sensor_id;sensor_type;location;lat;lon;timestamp;P1;durP1;ratioP1;P2;durP2;ratioP2
75732;SDS011;64435;47.424;19.400;2023-02-12T00:01:18;23.62;;;10.77;;
75732;SDS011;64435;47.424;19.400;2023-02-12T00:03:43;25.98;;;12.32;;
75732;SDS011;64435;47.424;19.400;2023-02-12T00:06:09;23.83;;;10.57;;
75732;SDS011;64435;47.424;19.400;2023-02-12T00:08:35;30.90;;;12.80;;
75732;SDS011;64435;47.424;19.400;2023-02-12T00:11:11;23.98;;;10.85;;
75732;SDS011;64435;47.424;19.400;2023-02-12T00:13:39;23.00;;;11.73;;
75732;SDS011;64435;47.424;19.400;2023-02-12T00:16:09;24.20;;;11.73;;
75732;SDS011;64435;47.424;19.400;2023-02-12T00:18:38;25.80;;;11.65;;
75732;SDS011;64435;47.424;19.400;2023-02-12T00:21:04;26.13;;;13.03;;
75732;SDS011;64435;47.424;19.400;2023-02-12T00:23:29;25.95;;;11.88;;
75732;SDS011;64435;47.424;19.400;2023-02-12T00:25:55;27.37;;;12.00;;
75732;SDS011;64435;47.424;19.400;2023-02-12T00:28:21;26.50;;;11.10;;
75732;SDS011;64435;47.424;19.400;2023-02-12T00:30:46;24.30;;;11.40;;
75732;SDS011;64435;47.424;19.400;2023-02-12T00:33:12;26.90;;;12.00;;
75732;SDS011;64435;47.424;19.400;2023-02-12T00:35:37;25.47;;;11.07;;
75732;SDS011;64435;47.424;19.400;2023-02-12T00:38:02;24.58;;;11.77;;
75732;SDS011;64435;47.424;19.400;2023-02-12T00:40:28;25.90;;;11.00;;
75732;SDS011;64435;47.424;19.400;2023-02-12T00:42:53;25.10;;;12.30;;
75732;SDS011;64435;47.424;19.400;2023-02-12T00:45:19;24.27;;;12.23;;
75732;SDS011;64435;47.424;19.400;2023-02-12T00:47:44;23.05;;;11.75;;
75732;SDS011;64435;47.424;19.400;2023-02-12T00:50:10;26.33;;;12.37;;
75732;SDS011;64435;47.424;19.400;2023-02-12T00:52:35;23.83;;;11.33;;
75732;SDS011;64435;47.424;19.400;2023-02-12T00:55:01;21.23;;;10.63;;
75732;SDS011;64435;47.424;19.400;2023-02-12T00:57:26;22.40;;;11.35;;
75732;SDS011;64435;47.424;19.400;2023-02-12T00:59:51;25.03;;;12.03;;
75732;SDS011;64435;47.424;19.400;2023-02-12T01:02:17;24.50;;;11.77;;
75732;SDS011;64435;47.424;19.400;2023-02-12T01:04:42;28.67;;;11.83;;
75732;SDS011;64435;47.424;19.400;2023-02-12T01:07:08;24.60;;;11.40;;
75732;SDS011;64435;47.424;19.400;2023-02-12T01:09:34;24.93;;;11.97;;
75732;SDS011;64435;47.424;19.400;2023-02-12T01:11:59;28.67;;;11.88;;
75732;SDS011;64435;47.424;19.400;2023-02-12T01:14:24;26.40;;;12.57;;
75732;SDS011;64435;47.424;19.400;2023-02-12T01:16:50;23.33;;;10.90;;
75732;SDS011;64435;47.424;19.400;2023-02-12T01:19:15;45.53;;;17.13;;
75732;SDS011;64435;47.424;19.400;2023-02-12T01:21:41;53.33;;;18.17;;
75732;SDS011;64435;47.424;19.400;2023-02-12T01:24:06;49.27;;;19.87;;
75732;SDS011;64435;47.424;19.400;2023-02-12T01:26:32;35.27;;;15.07;;
75732;SDS011;64435;47.424;19.400;2023-02-12T01:28:58;29.00;;;13.43;;
75732;SDS011;64435;47.424;19.400;2023-02-12T01:31:26;32.15;;;13.85;;
75732;SDS011;64435;47.424;19.400;2023-02-12T01:33:54;26.85;;;12.75;;
75732;SDS011;64435;47.424;19.400;2023-02-12T01:36:20;25.35;;;12.40;;
75732;SDS011;64435;47.424;19.400;2023-02-12T01:38:46;28.13;;;12.43;;
75732;SDS011;64435;47.424;19.400;2023-02-12T01:41:17;27.47;;;12.33;;
75732;SDS011;64435;47.424;19.400;2023-02-12T01:43:44;24.90;;;12.18;;
75732;SDS011;64435;47.424;19.400;2023-02-12T01:46:13;23.92;;;11.10;;
75732;SDS011;64435;47.424;19.400;2023-02-12T01:48:39;25.43;;;11.90;;
75732;SDS011;64435;47.424;19.400;2023-02-12T01:51:07;31.80;;;13.75;;
75732;SDS011;64435;47.424;19.400;2023-02-12T01:53:37;27.58;;;11.82;;
75732;SDS011;64435;47.424;19.400;2023-02-12T01:56:06;29.20;;;12.65;;
75732;SDS011;64435;47.424;19.400;2023-02-12T01:58:34;28.80;;;12.68;;
75732;SDS011;64435;47.424;19.400;2023-02-12T02:01:02;27.77;;;13.33;;
75732;SDS011;64435;47.424;19.400;2023-02-12T02:03:29;26.73;;;11.98;;
75732;SDS011;64435;47.424;19.400;2023-02-12T02:05:55;30.10;;;12.25;;
75732;SDS011;64435;47.424;19.400;2023-02-12T02:08:24;27.47;;;12.83;;
75732;SDS011;64435;47.424;19.400;2023-02-12T02:10:50;29.27;;;13.18;;
75732;SDS011;64435;47.424;19.400;2023-02-12T02:13:15;28.77;;;12.60;;
75732;SDS011;64435;47.424;19.400;2023-02-12T02:16:02;26.58;;;12.70;;
75732;SDS011;64435;47.424;19.400;2023-02-12T02:18:37;27.95;;;11.88;;
75732;SDS011;64435;47.424;19.400;2023-02-12T02:21:09;34.13;;;13.67;;
75732;SDS011;64435;47.424;19.400;2023-02-12T02:23:53;26.42;;;12.40;;
75732;SDS011;64435;47.424;19.400;2023-02-12T02:26:44;29.00;;;12.85;;
75732;SDS011;64435;47.424;19.400;2023-02-12T02:34:57;27.03;;;13.00;;
75732;SDS011;64435;47.424;19.400;2023-02-12T02:40:40;30.80;;;13.80;;
75732;SDS011;64435;47.424;19.400;2023-02-12T02:43:14;25.85;;;11.98;;
75732;SDS011;64435;47.424;19.400;2023-02-12T02:45:44;31.62;;;12.90;;
75732;SDS011;64435;47.424;19.400;2023-02-12T02:48:32;28.60;;;12.27;;
75732;SDS011;64435;47.424;19.400;2023-02-12T02:51:04;25.60;;;11.12;;
75732;SDS011;64435;47.424;19.400;2023-02-12T02:53:47;24.00;;;10.88;;
75732;SDS011;64435;47.424;19.400;2023-02-12T02:56:16;26.45;;;11.65;;
75732;SDS011;64435;47.424;19.400;2023-02-12T02:58:45;23.30;;;11.27;;
75732;SDS011;64435;47.424;19.400;2023-02-12T03:01:18;28.97;;;11.70;;
75732;SDS011;64435;47.424;19.400;2023-02-12T03:06:22;24.33;;;11.52;;
75732;SDS011;64435;47.424;19.400;2023-02-12T03:08:54;27.05;;;12.15;;
75732;SDS011;64435;47.424;19.400;2023-02-12T03:11:26;28.30;;;11.57;;
75732;SDS011;64435;47.424;19.400;2023-02-12T03:19:31;24.42;;;11.12;;
75732;SDS011;64435;47.424;19.400;2023-02-12T03:22:01;25.00;;;11.70;;
75732;SDS011;64435;47.424;19.400;2023-02-12T03:27:15;27.30;;;12.40;;
75732;SDS011;64435;47.424;19.400;2023-02-12T03:29:46;27.90;;;12.70;;
75732;SDS011;64435;47.424;19.400;2023-02-12T03:32:19;27.70;;;13.10;;
75732;SDS011;64435;47.424;19.400;2023-02-12T03:40:24;30.08;;;12.50;;
75732;SDS011;64435;47.424;19.400;2023-02-12T03:51:04;31.67;;;12.15;;
75732;SDS011;64435;47.424;19.400;2023-02-12T03:53:41;27.98;;;11.75;;
75732;SDS011;64435;47.424;19.400;2023-02-12T03:56:11;28.87;;;12.93;;
75732;SDS011;64435;47.424;19.400;2023-02-12T03:58:38;25.15;;;10.88;;
75732;SDS011;64435;47.424;19.400;2023-02-12T04:01:05;29.67;;;11.97;;
75732;SDS011;64435;47.424;19.400;2023-02-12T04:03:31;24.98;;;11.55;;
75732;SDS011;64435;47.424;19.400;2023-02-12T04:05:57;30.70;;;12.10;;
75732;SDS011;64435;47.424;19.400;2023-02-12T04:08:22;24.33;;;11.47;;
75732;SDS011;64435;47.424;19.400;2023-02-12T04:11:11;21.42;;;11.07;;
75732;SDS011;64435;47.424;19.400;2023-02-12T04:13:50;24.73;;;10.80;;
75732;SDS011;64435;47.424;19.400;2023-02-12T04:17:39;28.52;;;12.20;;
75732;SDS011;64435;47.424;19.400;2023-02-12T04:22:29;31.48;;;12.95;;
75732;SDS011;64435;47.424;19.400;2023-02-12T04:31:00;26.52;;;11.63;;
75732;SDS011;64435;47.424;19.400;2023-02-12T04:33:48;26.33;;;11.73;;
75732;SDS011;64435;47.424;19.400;2023-02-12T04:36:22;26.80;;;11.98;;
75732;SDS011;64435;47.424;19.400;2023-02-12T04:38:50;27.40;;;11.98;;
75732;SDS011;64435;47.424;19.400;2023-02-12T04:41:18;25.63;;;11.40;;
75732;SDS011;64435;47.424;19.400;2023-02-12T04:43:44;31.65;;;11.57;;
75732;SDS011;64435;47.424;19.400;2023-02-12T04:46:09;29.10;;;12.97;;
75732;SDS011;64435;47.424;19.400;2023-02-12T04:48:36;28.27;;;11.77;;
75732;SDS011;64435;47.424;19.400;2023-02-12T04:51:02;26.33;;;11.10;;
75732;SDS011;64435;47.424;19.400;2023-02-12T04:53:28;30.03;;;12.07;;
75732;SDS011;64435;47.424;19.400;2023-02-12T04:55:53;26.17;;;11.43;;
75732;SDS011;64435;47.424;19.400;2023-02-12T04:58:19;27.50;;;11.70;;
75732;SDS011;64435;47.424;19.400;2023-02-12T05:00:44;26.10;;;11.90;;
75732;SDS011;64435;47.424;19.400;2023-02-12T05:03:10;29.77;;;11.88;;
75732;SDS011;64435;47.424;19.400;2023-02-12T05:05:35;30.73;;;13.03;;
75732;SDS011;64435;47.424;19.400;2023-02-12T05:08:01;32.10;;;13.23;;
75732;SDS011;64435;47.424;19.400;2023-02-12T05:10:26;31.27;;;15.40;;
75732;SDS011;64435;47.424;19.400;2023-02-12T05:12:52;34.63;;;14.95;;
75732;SDS011;64435;47.424;19.400;2023-02-12T05:15:17;32.77;;;14.60;;
75732;SDS011;64435;47.424;19.400;2023-02-12T05:17:43;92.80;;;37.93;;
75732;SDS011;64435;47.424;19.400;2023-02-12T05:20:10;102.12;;;41.37;;
75732;SDS011;64435;47.424;19.400;2023-02-12T05:22:36;67.27;;;30.40;;
75732;SDS011;64435;47.424;19.400;2023-02-12T05:25:01;57.90;;;26.17;;
75732;SDS011;64435;47.424;19.400;2023-02-12T05:27:27;50.13;;;20.17;;
75732;SDS011;64435;47.424;19.400;2023-02-12T05:29:52;38.40;;;17.45;;
75732;SDS011;64435;47.424;19.400;2023-02-12T05:32:18;42.10;;;19.33;;
75732;SDS011;64435;47.424;19.400;2023-02-12T05:34:43;45.00;;;19.10;;
75732;SDS011;64435;47.424;19.400;2023-02-12T05:37:08;35.83;;;16.97;;
75732;SDS011;64435;47.424;19.400;2023-02-12T05:39:34;37.60;;;15.63;;
75732;SDS011;64435;47.424;19.400;2023-02-12T05:41:59;41.90;;;16.87;;
75732;SDS011;64435;47.424;19.400;2023-02-12T05:44:24;35.77;;;15.43;;
75732;SDS011;64435;47.424;19.400;2023-02-12T05:46:50;34.40;;;14.20;;
75732;SDS011;64435;47.424;19.400;2023-02-12T05:49:15;34.60;;;14.47;;
75732;SDS011;64435;47.424;19.400;2023-02-12T05:51:41;41.77;;;16.60;;
75732;SDS011;64435;47.424;19.400;2023-02-12T05:54:06;42.70;;;18.62;;
75732;SDS011;64435;47.424;19.400;2023-02-12T05:56:33;41.83;;;18.20;;
75732;SDS011;64435;47.424;19.400;2023-02-12T05:59:04;36.88;;;16.70;;
75732;SDS011;64435;47.424;19.400;2023-02-12T06:01:35;47.67;;;21.50;;
75732;SDS011;64435;47.424;19.400;2023-02-12T06:04:03;48.63;;;22.53;;
75732;SDS011;64435;47.424;19.400;2023-02-12T06:06:30;42.95;;;20.55;;
75732;SDS011;64435;47.424;19.400;2023-02-12T06:08:56;68.62;;;35.45;;
75732;SDS011;64435;47.424;19.400;2023-02-12T06:11:22;39.67;;;19.00;;
75732;SDS011;64435;47.424;19.400;2023-02-12T06:13:47;34.60;;;15.63;;
75732;SDS011;64435;47.424;19.400;2023-02-12T06:18:42;34.08;;;15.25;;
75732;SDS011;64435;47.424;19.400;2023-02-12T06:21:07;34.63;;;15.83;;
75732;SDS011;64435;47.424;19.400;2023-02-12T06:23:32;34.45;;;15.50;;
75732;SDS011;64435;47.424;19.400;2023-02-12T06:25:58;40.20;;;16.87;;
75732;SDS011;64435;47.424;19.400;2023-02-12T06:28:23;36.10;;;15.63;;
75732;SDS011;64435;47.424;19.400;2023-02-12T06:30:49;38.58;;;16.20;;
75732;SDS011;64435;47.424;19.400;2023-02-12T06:33:15;44.33;;;19.50;;
75732;SDS011;64435;47.424;19.400;2023-02-12T06:35:40;44.43;;;19.83;;
75732;SDS011;64435;47.424;19.400;2023-02-12T06:38:05;44.85;;;21.25;;
75732;SDS011;64435;47.424;19.400;2023-02-12T06:40:31;43.70;;;21.77;;
75732;SDS011;64435;47.424;19.400;2023-02-12T06:42:56;42.10;;;19.53;;
75732;SDS011;64435;47.424;19.400;2023-02-12T06:45:22;48.57;;;20.97;;
75732;SDS011;64435;47.424;19.400;2023-02-12T06:47:47;42.23;;;19.63;;
75732;SDS011;64435;47.424;19.400;2023-02-12T06:50:12;42.45;;;19.77;;
75732;SDS011;64435;47.424;19.400;2023-02-12T06:52:38;45.10;;;20.00;;
75732;SDS011;64435;47.424;19.400;2023-02-12T06:55:03;40.07;;;18.30;;
75732;SDS011;64435;47.424;19.400;2023-02-12T06:57:29;45.65;;;19.20;;
75732;SDS011;64435;47.424;19.400;2023-02-12T06:59:55;45.70;;;21.17;;
75732;SDS011;64435;47.424;19.400;2023-02-12T07:02:20;45.28;;;18.62;;
75732;SDS011;64435;47.424;19.400;2023-02-12T07:04:46;45.67;;;19.57;;
75732;SDS011;64435;47.424;19.400;2023-02-12T07:07:11;47.23;;;20.07;;
75732;SDS011;64435;47.424;19.400;2023-02-12T07:09:37;44.80;;;19.53;;
75732;SDS011;64435;47.424;19.400;2023-02-12T07:12:02;46.07;;;20.17;;
75732;SDS011;64435;47.424;19.400;2023-02-12T07:14:28;50.47;;;19.70;;
75732;SDS011;64435;47.424;19.400;2023-02-12T07:16:53;45.10;;;20.20;;
75732;SDS011;64435;47.424;19.400;2023-02-12T07:19:19;54.13;;;22.00;;
75732;SDS011;64435;47.424;19.400;2023-02-12T07:21:44;60.90;;;24.20;;
75732;SDS011;64435;47.424;19.400;2023-02-12T07:24:10;57.70;;;24.30;;
75732;SDS011;64435;47.424;19.400;2023-02-12T07:26:36;52.43;;;23.40;;
75732;SDS011;64435;47.424;19.400;2023-02-12T07:29:02;53.83;;;22.98;;
75732;SDS011;64435;47.424;19.400;2023-02-12T07:31:28;53.80;;;22.58;;
75732;SDS011;64435;47.424;19.400;2023-02-12T07:33:55;104.90;;;45.17;;
75732;SDS011;64435;47.424;19.400;2023-02-12T07:36:22;62.43;;;30.43;;
75732;SDS011;64435;47.424;19.400;2023-02-12T07:38:48;48.60;;;23.50;;
75732;SDS011;64435;47.424;19.400;2023-02-12T07:41:15;47.10;;;22.05;;
75732;SDS011;64435;47.424;19.400;2023-02-12T07:43:43;54.77;;;27.20;;
75732;SDS011;64435;47.424;19.400;2023-02-12T07:46:11;55.80;;;24.55;;
75732;SDS011;64435;47.424;19.400;2023-02-12T07:48:46;56.65;;;23.77;;
75732;SDS011;64435;47.424;19.400;2023-02-12T07:51:13;59.10;;;24.08;;
75732;SDS011;64435;47.424;19.400;2023-02-12T07:53:40;83.00;;;32.53;;
75732;SDS011;64435;47.424;19.400;2023-02-12T07:58:32;91.37;;;33.67;;
75732;SDS011;64435;47.424;19.400;2023-02-12T08:00:57;51.67;;;24.07;;
75732;SDS011;64435;47.424;19.400;2023-02-12T08:03:23;38.30;;;17.37;;
75732;SDS011;64435;47.424;19.400;2023-02-12T08:05:48;49.03;;;21.95;;
75732;SDS011;64435;47.424;19.400;2023-02-12T08:08:13;44.20;;;20.10;;
75732;SDS011;64435;47.424;19.400;2023-02-12T08:10:39;41.67;;;19.87;;
75732;SDS011;64435;47.424;19.400;2023-02-12T08:13:04;43.40;;;20.70;;
75732;SDS011;64435;47.424;19.400;2023-02-12T08:15:29;42.30;;;20.97;;
75732;SDS011;64435;47.424;19.400;2023-02-12T08:17:55;48.40;;;22.37;;
75732;SDS011;64435;47.424;19.400;2023-02-12T08:20:20;45.13;;;21.23;;
75732;SDS011;64435;47.424;19.400;2023-02-12T08:22:45;41.70;;;20.57;;
75732;SDS011;64435;47.424;19.400;2023-02-12T08:25:11;42.57;;;18.47;;
75732;SDS011;64435;47.424;19.400;2023-02-12T08:27:36;38.83;;;19.70;;
75732;SDS011;64435;47.424;19.400;2023-02-12T08:30:02;38.43;;;19.07;;
75732;SDS011;64435;47.424;19.400;2023-02-12T08:32:27;40.87;;;19.00;;
75732;SDS011;64435;47.424;19.400;2023-02-12T08:34:53;40.12;;;21.33;;
75732;SDS011;64435;47.424;19.400;2023-02-12T08:37:19;41.67;;;20.83;;
75732;SDS011;64435;47.424;19.400;2023-02-12T08:39:44;41.87;;;19.83;;
75732;SDS011;64435;47.424;19.400;2023-02-12T08:42:09;36.13;;;18.77;;
75732;SDS011;64435;47.424;19.400;2023-02-12T08:44:35;37.17;;;19.53;;
75732;SDS011;64435;47.424;19.400;2023-02-12T08:47:01;36.27;;;18.93;;
75732;SDS011;64435;47.424;19.400;2023-02-12T08:49:27;40.67;;;22.75;;
75732;SDS011;64435;47.424;19.400;2023-02-12T08:51:54;37.17;;;18.48;;
75732;SDS011;64435;47.424;19.400;2023-02-12T08:54:21;38.75;;;19.60;;
75732;SDS011;64435;47.424;19.400;2023-02-12T08:56:48;39.33;;;19.67;;
75732;SDS011;64435;47.424;19.400;2023-02-12T08:59:14;37.10;;;18.67;;
75732;SDS011;64435;47.424;19.400;2023-02-12T09:01:40;39.45;;;19.42;;
75732;SDS011;64435;47.424;19.400;2023-02-12T09:04:06;34.88;;;17.15;;
75732;SDS011;64435;47.424;19.400;2023-02-12T09:06:33;34.53;;;18.40;;
75732;SDS011;64435;47.424;19.400;2023-02-12T09:08:59;36.08;;;21.92;;
75732;SDS011;64435;47.424;19.400;2023-02-12T09:11:25;40.10;;;19.50;;
75732;SDS011;64435;47.424;19.400;2023-02-12T09:13:56;41.47;;;20.77;;
75732;SDS011;64435;47.424;19.400;2023-02-12T09:16:23;36.00;;;19.20;;
75732;SDS011;64435;47.424;19.400;2023-02-12T09:18:48;33.33;;;17.50;;
75732;SDS011;64435;47.424;19.400;2023-02-12T09:21:14;32.97;;;16.67;;
75732;SDS011;64435;47.424;19.400;2023-02-12T09:23:41;32.95;;;17.67;;
75732;SDS011;64435;47.424;19.400;2023-02-12T09:26:08;29.00;;;16.80;;
75732;SDS011;64435;47.424;19.400;2023-02-12T09:28:35;35.78;;;20.37;;
75732;SDS011;64435;47.424;19.400;2023-02-12T09:31:07;30.75;;;17.23;;
75732;SDS011;64435;47.424;19.400;2023-02-12T09:33:37;30.30;;;16.52;;
75732;SDS011;64435;47.424;19.400;2023-02-12T09:36:03;32.97;;;16.57;;
75732;SDS011;64435;47.424;19.400;2023-02-12T09:38:30;31.50;;;16.92;;
75732;SDS011;64435;47.424;19.400;2023-02-12T09:43:55;31.17;;;16.57;;
75732;SDS011;64435;47.424;19.400;2023-02-12T09:46:29;31.15;;;17.23;;
75732;SDS011;64435;47.424;19.400;2023-02-12T09:49:03;34.50;;;17.37;;
75732;SDS011;64435;47.424;19.400;2023-02-12T09:51:36;26.55;;;15.82;;
75732;SDS011;64435;47.424;19.400;2023-02-12T09:54:04;30.00;;;17.58;;
75732;SDS011;64435;47.424;19.400;2023-02-12T09:56:33;30.70;;;17.37;;
75732;SDS011;64435;47.424;19.400;2023-02-12T09:59:04;28.67;;;17.45;;
75732;SDS011;64435;47.424;19.400;2023-02-12T10:01:31;30.77;;;19.25;;
75732;SDS011;64435;47.424;19.400;2023-02-12T10:03:56;31.37;;;18.07;;
75732;SDS011;64435;47.424;19.400;2023-02-12T10:06:26;32.03;;;18.27;;
75732;SDS011;64435;47.424;19.400;2023-02-12T10:27:35;29.87;;;19.00;;
75732;SDS011;64435;47.424;19.400;2023-02-12T10:30:19;32.97;;;19.87;;
75732;SDS011;64435;47.424;19.400;2023-02-12T10:32:47;33.25;;;20.85;;
75732;SDS011;64435;47.424;19.400;2023-02-12T10:35:15;34.67;;;21.23;;
75732;SDS011;64435;47.424;19.400;2023-02-12T10:37:50;33.78;;;20.23;;
75732;SDS011;64435;47.424;19.400;2023-02-12T10:42:50;49.73;;;27.10;;
75732;SDS011;64435;47.424;19.400;2023-02-12T10:45:17;38.58;;;22.98;;
75732;SDS011;64435;47.424;19.400;2023-02-12T10:47:45;35.92;;;21.55;;
75732;SDS011;64435;47.424;19.400;2023-02-12T10:52:46;53.55;;;29.42;;
75732;SDS011;64435;47.424;19.400;2023-02-12T10:55:24;49.47;;;28.17;;
75732;SDS011;64435;47.424;19.400;2023-02-12T10:57:54;55.60;;;30.12;;
75732;SDS011;64435;47.424;19.400;2023-02-12T11:00:33;41.53;;;25.40;;
75732;SDS011;64435;47.424;19.400;2023-02-12T11:05:38;44.92;;;27.30;;
75732;SDS011;64435;47.424;19.400;2023-02-12T11:08:06;44.23;;;27.33;;
75732;SDS011;64435;47.424;19.400;2023-02-12T11:10:35;41.22;;;27.05;;
75732;SDS011;64435;47.424;19.400;2023-02-12T11:13:02;42.65;;;26.27;;
75732;SDS011;64435;47.424;19.400;2023-02-12T11:15:45;42.07;;;25.27;;
75732;SDS011;64435;47.424;19.400;2023-02-12T11:18:19;37.75;;;24.60;;
75732;SDS011;64435;47.424;19.400;2023-02-12T11:20:49;39.70;;;24.65;;
75732;SDS011;64435;47.424;19.400;2023-02-12T11:23:30;36.00;;;23.75;;
75732;SDS011;64435;47.424;19.400;2023-02-12T11:26:01;39.70;;;24.60;;
75732;SDS011;64435;47.424;19.400;2023-02-12T11:28:51;45.53;;;27.27;;
75732;SDS011;64435;47.424;19.400;2023-02-12T11:31:31;43.45;;;26.90;;
75732;SDS011;64435;47.424;19.400;2023-02-12T11:36:46;42.95;;;27.20;;
75732;SDS011;64435;47.424;19.400;2023-02-12T11:39:20;44.45;;;26.75;;
75732;SDS011;64435;47.424;19.400;2023-02-12T11:41:50;45.70;;;31.23;;
75732;SDS011;64435;47.424;19.400;2023-02-12T11:44:38;42.03;;;24.80;;
75732;SDS011;64435;47.424;19.400;2023-02-12T11:47:05;41.88;;;25.88;;
75732;SDS011;64435;47.424;19.400;2023-02-12T11:49:41;42.08;;;25.92;;
75732;SDS011;64435;47.424;19.400;2023-02-12T11:52:14;41.78;;;26.15;;
75732;SDS011;64435;47.424;19.400;2023-02-12T11:54:45;40.80;;;24.90;;
75732;SDS011;64435;47.424;19.400;2023-02-12T12:00:10;40.78;;;24.83;;
75732;SDS011;64435;47.424;19.400;2023-02-12T12:02:41;43.05;;;25.48;;
75732;SDS011;64435;47.424;19.400;2023-02-12T12:05:14;40.55;;;24.63;;
75732;SDS011;64435;47.424;19.400;2023-02-12T12:07:44;37.77;;;24.03;;
75732;SDS011;64435;47.424;19.400;2023-02-12T12:10:47;36.78;;;21.77;;
75732;SDS011;64435;47.424;19.400;2023-02-12T12:13:12;34.42;;;20.70;;
75732;SDS011;64435;47.424;19.400;2023-02-12T12:15:41;37.17;;;22.75;;
75732;SDS011;64435;47.424;19.400;2023-02-12T12:18:31;38.60;;;22.52;;
75732;SDS011;64435;47.424;19.400;2023-02-12T12:24:30;40.35;;;23.25;;
75732;SDS011;64435;47.424;19.400;2023-02-12T12:27:19;36.70;;;22.73;;
75732;SDS011;64435;47.424;19.400;2023-02-12T12:30:10;26.42;;;16.48;;
75732;SDS011;64435;47.424;19.400;2023-02-12T12:32:40;27.60;;;17.02;;
75732;SDS011;64435;47.424;19.400;2023-02-12T12:35:10;25.07;;;16.37;;
75732;SDS011;64435;47.424;19.400;2023-02-12T12:37:51;24.02;;;14.57;;
75732;SDS011;64435;47.424;19.400;2023-02-12T12:40:40;23.55;;;14.85;;
75732;SDS011;64435;47.424;19.400;2023-02-12T12:43:13;25.42;;;15.38;;
75732;SDS011;64435;47.424;19.400;2023-02-12T12:48:35;24.30;;;15.60;;
75732;SDS011;64435;47.424;19.400;2023-02-12T12:56:33;16.55;;;10.73;;
75732;SDS011;64435;47.424;19.400;2023-02-12T13:10:54;17.87;;;11.12;;
75732;SDS011;64435;47.424;19.400;2023-02-12T13:16:02;20.12;;;11.80;;
75732;SDS011;64435;47.424;19.400;2023-02-12T13:27:38;29.48;;;16.58;;
75732;SDS011;64435;47.424;19.400;2023-02-12T13:29:48;30.50;;;17.45;;
75732;SDS011;64435;47.424;19.400;2023-02-12T13:35:00;13.95;;;8.13;;
75732;SDS011;64435;47.424;19.400;2023-02-12T13:37:42;14.30;;;7.78;;
75732;SDS011;64435;47.424;19.400;2023-02-12T13:40:21;17.12;;;10.32;;
75732;SDS011;64435;47.424;19.400;2023-02-12T13:45:41;14.27;;;9.23;;
75732;SDS011;64435;47.424;19.400;2023-02-12T13:56:55;15.70;;;9.48;;
75732;SDS011;64435;47.424;19.400;2023-02-12T14:01:54;19.85;;;10.80;;
75732;SDS011;64435;47.424;19.400;2023-02-12T14:06:59;19.00;;;11.00;;
75732;SDS011;64435;47.424;19.400;2023-02-12T14:09:30;21.48;;;12.40;;
75732;SDS011;64435;47.424;19.400;2023-02-12T14:12:01;22.98;;;12.55;;
75732;SDS011;64435;47.424;19.400;2023-02-12T14:23:42;18.37;;;10.32;;
75732;SDS011;64435;47.424;19.400;2023-02-12T14:26:04;23.17;;;11.95;;
75732;SDS011;64435;47.424;19.400;2023-02-12T14:28:33;16.48;;;9.07;;
75732;SDS011;64435;47.424;19.400;2023-02-12T14:33:42;20.23;;;10.60;;
75732;SDS011;64435;47.424;19.400;2023-02-12T14:41:23;19.03;;;10.37;;
75732;SDS011;64435;47.424;19.400;2023-02-12T14:46:55;22.83;;;10.30;;
75732;SDS011;64435;47.424;19.400;2023-02-12T14:49:45;36.15;;;15.27;;
75732;SDS011;64435;47.424;19.400;2023-02-12T14:52:14;32.88;;;15.18;;
75732;SDS011;64435;47.424;19.400;2023-02-12T14:54:44;28.33;;;14.25;;
75732;SDS011;64435;47.424;19.400;2023-02-12T14:57:20;27.10;;;13.40;;
75732;SDS011;64435;47.424;19.400;2023-02-12T14:59:55;24.53;;;12.07;;
75732;SDS011;64435;47.424;19.400;2023-02-12T15:05:12;24.02;;;12.30;;
75732;SDS011;64435;47.424;19.400;2023-02-12T15:07:42;22.20;;;12.65;;
75732;SDS011;64435;47.424;19.400;2023-02-12T15:10:17;23.95;;;13.20;;
75732;SDS011;64435;47.424;19.400;2023-02-12T15:12:45;21.03;;;10.70;;
75732;SDS011;64435;47.424;19.400;2023-02-12T15:17:48;22.02;;;12.15;;
75732;SDS011;64435;47.424;19.400;2023-02-12T15:20:23;24.37;;;11.95;;
75732;SDS011;64435;47.424;19.400;2023-02-12T15:22:52;25.92;;;13.90;;
75732;SDS011;64435;47.424;19.400;2023-02-12T15:25:21;25.07;;;12.90;;
75732;SDS011;64435;47.424;19.400;2023-02-12T15:27:53;24.67;;;13.13;;
75732;SDS011;64435;47.424;19.400;2023-02-12T15:30:24;23.60;;;13.00;;
75732;SDS011;64435;47.424;19.400;2023-02-12T15:32:51;26.83;;;13.48;;
75732;SDS011;64435;47.424;19.400;2023-02-12T15:35:22;26.40;;;14.02;;
75732;SDS011;64435;47.424;19.400;2023-02-12T15:37:50;31.85;;;15.65;;
75732;SDS011;64435;47.424;19.400;2023-02-12T15:40:16;29.30;;;15.13;;
75732;SDS011;64435;47.424;19.400;2023-02-12T15:42:54;27.13;;;14.57;;
75732;SDS011;64435;47.424;19.400;2023-02-12T15:48:33;29.85;;;15.63;;
75732;SDS011;64435;47.424;19.400;2023-02-12T15:50:50;36.00;;;15.90;;
75732;SDS011;64435;47.424;19.400;2023-02-12T15:53:37;34.28;;;16.62;;
75732;SDS011;64435;47.424;19.400;2023-02-12T15:56:03;31.90;;;15.98;;
75732;SDS011;64435;47.424;19.400;2023-02-12T15:58:41;42.47;;;18.67;;
75732;SDS011;64435;47.424;19.400;2023-02-12T16:01:14;40.75;;;18.55;;
75732;SDS011;64435;47.424;19.400;2023-02-12T16:03:41;38.22;;;17.02;;
75732;SDS011;64435;47.424;19.400;2023-02-12T16:06:11;37.97;;;17.67;;
75732;SDS011;64435;47.424;19.400;2023-02-12T16:08:41;40.20;;;17.55;;
75732;SDS011;64435;47.424;19.400;2023-02-12T16:11:09;37.63;;;16.95;;
75732;SDS011;64435;47.424;19.400;2023-02-12T16:13:45;37.22;;;18.27;;
75732;SDS011;64435;47.424;19.400;2023-02-12T16:18:39;40.72;;;19.65;;
75732;SDS011;64435;47.424;19.400;2023-02-12T16:21:15;42.30;;;19.57;;
75732;SDS011;64435;47.424;19.400;2023-02-12T16:23:43;39.33;;;18.90;;
75732;SDS011;64435;47.424;19.400;2023-02-12T16:26:14;40.67;;;19.62;;
75732;SDS011;64435;47.424;19.400;2023-02-12T16:28:44;39.92;;;18.90;;
75732;SDS011;64435;47.424;19.400;2023-02-12T16:31:12;43.10;;;20.90;;
75732;SDS011;64435;47.424;19.400;2023-02-12T16:36:10;45.77;;;21.40;;
75732;SDS011;64435;47.424;19.400;2023-02-12T16:38:44;60.80;;;25.60;;
75732;SDS011;64435;47.424;19.400;2023-02-12T16:43:46;100.43;;;34.13;;
75732;SDS011;64435;47.424;19.400;2023-02-12T16:46:13;64.97;;;28.45;;
75732;SDS011;64435;47.424;19.400;2023-02-12T16:48:41;64.10;;;30.00;;
75732;SDS011;64435;47.424;19.400;2023-02-12T16:53:53;71.45;;;30.65;;
75732;SDS011;64435;47.424;19.400;2023-02-12T16:56:21;75.22;;;33.60;;
75732;SDS011;64435;47.424;19.400;2023-02-12T16:58:49;79.28;;;33.50;;
75732;SDS011;64435;47.424;19.400;2023-02-12T17:01:22;79.50;;;35.60;;
75732;SDS011;64435;47.424;19.400;2023-02-12T17:03:52;83.90;;;34.75;;
75732;SDS011;64435;47.424;19.400;2023-02-12T17:06:19;94.72;;;37.83;;
75732;SDS011;64435;47.424;19.400;2023-02-12T17:08:46;120.68;;;41.78;;
75732;SDS011;64435;47.424;19.400;2023-02-12T17:11:11;106.40;;;39.87;;
75732;SDS011;64435;47.424;19.400;2023-02-12T17:13:39;91.85;;;38.28;;
75732;SDS011;64435;47.424;19.400;2023-02-12T17:16:04;89.33;;;38.60;;